createdAt,value
2022-09-02T00:01:16.477Z,25.36
2022-09-02T00:06:24.789Z,25.35
2022-09-02T00:11:31.555Z,25.36
2022-09-02T00:16:35.794Z,25.34
2022-09-02T00:21:39.341Z,25.34
2022-09-02T00:26:43.098Z,25.33
2022-09-02T00:31:47.855Z,25.33
2022-09-02T00:36:51.527Z,25.35
2022-09-02T00:41:55.200Z,25.34
2022-09-02T00:47:01.733Z,25.41
2022-09-02T00:52:08.090Z,25.47
2022-09-02T00:57:15.599Z,25.47
2022-09-02T01:02:19.729Z,25.45
2022-09-02T01:07:26.242Z,25.38
2022-09-02T01:12:31.086Z,25.37
2022-09-02T01:17:35.708Z,25.33
2022-09-02T01:22:43.699Z,25.27
2022-09-02T01:27:51.515Z,25.24
2022-09-02T01:32:55.209Z,25.20
2022-09-02T01:38:00.003Z,25.21
2022-09-02T01:43:07.786Z,25.26
2022-09-02T01:48:13.187Z,25.34
2022-09-02T01:53:17.677Z,25.34
2022-09-02T01:58:23.722Z,25.34
2022-09-02T02:03:27.802Z,25.31
2022-09-02T02:08:34.705Z,25.31
2022-09-02T02:13:38.486Z,25.28
2022-09-02T02:18:42.649Z,25.27
2022-09-02T02:23:46.481Z,25.24
2022-09-02T02:28:50.196Z,25.17
2022-09-02T02:33:55.038Z,25.17
2022-09-02T02:38:59.273Z,25.14
2022-09-02T02:44:02.677Z,25.08
2022-09-02T02:49:07.096Z,25.06
2022-09-02T02:54:11.264Z,25.05
2022-09-02T02:59:14.793Z,25.07
2022-09-02T03:04:18.263Z,25.04
2022-09-02T03:09:22.170Z,25.09
2022-09-02T03:14:28.201Z,25.07
2022-09-02T03:19:34.511Z,25.05
2022-09-02T03:24:38.748Z,25.03
2022-09-02T03:29:43.271Z,25.02
2022-09-02T03:34:47.700Z,25.03
2022-09-02T03:39:51.405Z,25.05
2022-09-02T03:44:56.106Z,25.04
2022-09-02T03:49:59.746Z,25.10
2022-09-02T03:55:05.936Z,25.14
2022-09-02T04:00:11.698Z,25.17
2022-09-02T04:05:18.918Z,25.21
2022-09-02T04:10:23.874Z,25.26
2022-09-02T04:15:28.381Z,25.37
2022-09-02T04:20:31.921Z,25.48
2022-09-02T04:25:43.124Z,25.60
2022-09-02T04:30:48.158Z,25.69
2022-09-02T04:35:52.760Z,25.80
2022-09-02T04:40:57.295Z,25.88
2022-09-02T04:46:03.812Z,25.98
2022-09-02T04:51:13.827Z,26.11
2022-09-02T04:56:28.027Z,26.24
2022-09-02T05:01:35.114Z,26.39
2022-09-02T05:06:44.962Z,26.54
2022-09-02T05:11:53.887Z,26.76
2022-09-02T05:17:05.131Z,27.01
2022-09-02T05:22:17.335Z,27.19
2022-09-02T05:27:21.620Z,27.32
2022-09-02T05:32:27.875Z,27.30
2022-09-02T05:37:31.943Z,27.31
2022-09-02T05:42:36.679Z,27.39
2022-09-02T05:47:41.075Z,27.50
2022-09-02T05:52:45.268Z,27.57
2022-09-02T05:57:48.871Z,27.60
2022-09-02T06:02:53.204Z,27.64
2022-09-02T06:08:07.861Z,27.75
2022-09-02T06:13:13.912Z,27.83
2022-09-02T06:18:18.764Z,27.85
2022-09-02T06:23:26.411Z,27.89
2022-09-02T06:28:29.825Z,28.14
2022-09-02T06:33:35.269Z,28.60
2022-09-02T06:38:45.971Z,28.87
2022-09-02T06:43:51.106Z,29.20
2022-09-02T06:49:01.571Z,29.46
2022-09-02T06:54:06.808Z,29.74
2022-09-02T06:59:13.308Z,29.69
2022-09-02T07:04:27.065Z,29.37
2022-09-02T07:09:32.808Z,29.25
2022-09-02T07:14:46.300Z,29.41
2022-09-02T07:19:53.542Z,29.48
2022-09-02T07:24:58.584Z,29.41
2022-09-02T07:30:07.738Z,29.30
2022-09-02T07:35:15.740Z,29.35
2022-09-02T07:40:23.657Z,29.69
2022-09-02T07:45:28.196Z,29.84
2022-09-02T07:50:31.813Z,29.86
2022-09-02T07:55:38.344Z,29.85
2022-09-02T08:00:46.518Z,29.77
2022-09-02T08:05:52.874Z,29.79
2022-09-02T08:10:56.677Z,29.93
2022-09-02T08:16:00.119Z,30.12
2022-09-02T08:21:09.878Z,30.07
2022-09-02T08:26:13.598Z,29.89
2022-09-02T08:31:17.114Z,29.79
2022-09-02T08:36:20.643Z,29.59
2022-09-02T08:41:34.074Z,29.51
2022-09-02T08:46:37.369Z,29.86
2022-09-02T08:51:46.523Z,29.99
2022-09-02T08:56:56.427Z,30.01
2022-09-02T09:02:06.683Z,30.06
2022-09-02T09:07:29.206Z,30.05
2022-09-02T09:13:12.955Z,29.97
2022-09-02T09:18:49.576Z,30.20
2022-09-02T09:23:55.866Z,30.45
2022-09-02T09:29:04.779Z,30.37
2022-09-02T09:34:13.454Z,30.26
2022-09-02T09:39:28.482Z,30.22
2022-09-02T09:44:35.525Z,30.20
2022-09-02T09:49:40.887Z,30.14
2022-09-02T09:54:45.682Z,30.08
2022-09-02T09:59:50.000Z,29.87
2022-09-02T10:05:27.918Z,29.76
2022-09-02T10:10:33.112Z,29.65
2022-09-02T10:15:49.609Z,29.88
2022-09-02T10:21:16.695Z,29.95
2022-09-02T10:26:40.375Z,30.09
2022-09-02T10:32:11.814Z,30.05
2022-09-02T10:37:23.503Z,29.85
2022-09-02T10:43:04.819Z,29.79
2022-09-02T10:48:16.938Z,29.72
2022-09-02T10:53:43.189Z,29.67
2022-09-02T10:59:04.528Z,29.68
2022-09-02T11:04:48.340Z,29.52
2022-09-02T11:10:01.771Z,29.41
2022-09-02T11:15:24.964Z,29.37
2022-09-02T11:20:45.957Z,29.26
2022-09-02T11:26:16.043Z,29.14
2022-09-02T11:31:46.237Z,29.06
2022-09-02T11:36:49.998Z,28.98
2022-09-02T11:42:14.507Z,29.15
2022-09-02T11:47:27.441Z,29.13
2022-09-02T11:52:52.874Z,29.10
2022-09-02T11:57:58.512Z,29.05
2022-09-02T12:03:16.795Z,29.09
2022-09-02T12:08:35.560Z,29.06
2022-09-02T12:13:45.026Z,28.97
2022-09-02T12:18:54.398Z,28.96
2022-09-02T12:24:02.300Z,28.94
2022-09-02T12:29:27.019Z,28.86
2022-09-02T12:34:32.742Z,28.74
2022-09-02T12:39:41.702Z,28.67
2022-09-02T12:45:00.037Z,28.58
2022-09-02T12:50:23.456Z,28.51
2022-09-02T12:55:32.442Z,28.48
2022-09-02T13:00:52.265Z,28.58
2022-09-02T13:06:17.439Z,28.71
2022-09-02T13:11:58.402Z,28.77
2022-09-02T13:17:35.039Z,28.82
2022-09-02T13:23:01.646Z,28.77
2022-09-02T13:28:47.549Z,28.67
2022-09-02T13:34:13.811Z,28.59
2022-09-02T13:39:26.657Z,28.52
2022-09-02T13:44:30.056Z,28.44
2022-09-02T13:49:40.535Z,28.36
2022-09-02T13:54:48.002Z,28.29
2022-09-02T13:59:56.851Z,28.31
2022-09-02T14:05:07.409Z,28.27
2022-09-02T14:10:17.236Z,28.30
2022-09-02T14:15:27.377Z,28.29
2022-09-02T14:20:30.865Z,28.16
2022-09-02T14:25:39.546Z,28.21
2022-09-02T14:30:43.009Z,28.13
2022-09-02T14:36:03.303Z,27.98
2022-09-02T14:41:20.532Z,27.87
2022-09-02T14:46:38.684Z,27.75
2022-09-02T14:51:47.928Z,27.72
2022-09-02T14:56:53.657Z,27.65
2022-09-02T15:01:59.168Z,27.60
2022-09-02T15:07:02.494Z,27.47
2022-09-02T15:12:06.030Z,27.42
2022-09-02T15:17:12.316Z,27.33
2022-09-02T15:22:16.642Z,27.28
2022-09-02T15:27:21.758Z,27.19
2022-09-02T15:32:29.556Z,27.07
2022-09-02T15:37:33.244Z,27.02
2022-09-02T15:42:40.037Z,26.95
2022-09-02T15:47:43.935Z,26.93
2022-09-02T15:52:47.743Z,26.89
2022-09-02T15:57:51.453Z,26.87
2022-09-02T16:02:54.983Z,26.88
2022-09-02T16:08:02.522Z,26.86
2022-09-02T16:13:16.337Z,26.84
2022-09-02T16:18:20.355Z,26.85
2022-09-02T16:23:24.638Z,26.79
2022-09-02T16:28:38.151Z,26.83
2022-09-02T16:33:41.715Z,26.83
2022-09-02T16:38:45.260Z,26.82
2022-09-02T16:43:49.625Z,26.79
2022-09-02T16:48:53.587Z,26.80
2022-09-02T16:54:03.525Z,26.77
2022-09-02T16:59:09.041Z,26.75
2022-09-02T17:04:15.338Z,26.71
2022-09-02T17:09:19.249Z,26.70
2022-09-02T17:14:23.309Z,26.68
2022-09-02T17:19:32.553Z,26.67
2022-09-02T17:24:36.217Z,26.69
2022-09-02T17:29:50.521Z,26.69
2022-09-02T17:34:54.911Z,26.71
2022-09-02T17:40:01.177Z,26.70
2022-09-02T17:45:07.278Z,26.70
2022-09-02T17:50:13.620Z,26.74
2022-09-02T17:55:20.833Z,26.78
2022-09-02T18:00:25.200Z,26.77
2022-09-02T18:05:52.950Z,26.81
2022-09-02T18:10:59.285Z,26.79
2022-09-02T18:22:03.454Z,26.79
2022-09-02T18:27:36.861Z,26.75
2022-09-02T18:32:46.446Z,26.76
2022-09-02T18:38:13.979Z,26.77
2022-09-02T18:43:20.740Z,26.75
2022-09-02T18:48:36.854Z,26.76
2022-09-02T18:53:48.717Z,26.76
2022-09-02T18:59:04.764Z,26.72
2022-09-02T19:04:12.279Z,26.69
2022-09-02T19:09:24.154Z,26.68
2022-09-02T19:14:29.424Z,26.70
2022-09-02T19:19:34.839Z,26.66
2022-09-02T19:24:47.030Z,26.66
2022-09-02T19:29:55.999Z,26.67
2022-09-02T19:35:09.291Z,26.67
2022-09-02T19:40:16.595Z,26.69
2022-09-02T19:45:22.247Z,26.70
2022-09-02T19:50:28.351Z,26.74
2022-09-02T19:55:33.922Z,26.73
2022-09-02T20:00:41.131Z,26.72
2022-09-02T20:05:45.302Z,26.73
2022-09-02T20:11:03.887Z,26.72
2022-09-02T20:16:22.166Z,26.68
2022-09-02T20:21:31.561Z,26.68
2022-09-02T20:27:03.795Z,26.65
2022-09-02T20:32:24.694Z,26.62
2022-09-02T20:37:58.968Z,26.62
2022-09-02T20:43:02.288Z,26.58
2022-09-02T20:48:24.248Z,26.57
2022-09-02T20:54:05.338Z,26.59
2022-09-02T20:59:19.738Z,26.60
2022-09-02T21:04:26.110Z,26.59
2022-09-02T21:09:39.474Z,26.57
2022-09-02T21:14:47.576Z,26.54
2022-09-02T21:20:55.212Z,26.54
2022-09-02T21:26:13.317Z,26.52
2022-09-02T21:31:40.000Z,26.48
2022-09-02T21:36:44.340Z,26.45
2022-09-02T21:41:57.407Z,26.48
2022-09-02T21:47:19.112Z,26.50
2022-09-02T21:52:48.900Z,26.50
2022-09-02T21:58:23.811Z,26.48
2022-09-02T22:03:41.655Z,26.46
2022-09-02T22:09:06.431Z,26.48
2022-09-02T22:14:22.587Z,26.45
2022-09-02T22:19:31.461Z,26.46
2022-09-02T22:24:35.277Z,26.42
2022-09-02T22:30:03.243Z,26.41
2022-09-02T22:35:23.009Z,26.36
2022-09-02T22:40:31.413Z,26.34
2022-09-02T22:46:11.760Z,26.31
2022-09-02T22:51:30.173Z,26.28
2022-09-02T22:57:12.702Z,26.28
2022-09-02T23:02:32.217Z,26.27
2022-09-02T23:07:36.051Z,26.26
2022-09-02T23:13:05.879Z,26.28
2022-09-02T23:18:24.572Z,26.28
2022-09-02T23:23:53.632Z,26.27
2022-09-02T23:29:20.479Z,26.30
2022-09-02T23:34:51.130Z,26.29
2022-09-02T23:40:51.810Z,26.24
2022-09-02T23:46:30.599Z,26.25
2022-09-02T23:52:06.318Z,26.25
2022-09-02T23:57:36.940Z,26.23
